sensor_id;sensor_type;location;lat;lon;timestamp;P1;durP1;ratioP1;P2;durP2;ratioP2
42282;SDS011;28237;47.954;21.730;2022-08-19T00:02:01;5.53;;;5.00;;
42282;SDS011;28237;47.954;21.730;2022-08-19T00:04:30;7.30;;;5.37;;
42282;SDS011;28237;47.954;21.730;2022-08-19T00:06:56;5.03;;;4.55;;
42282;SDS011;28237;47.954;21.730;2022-08-19T00:09:23;6.55;;;5.28;;
42282;SDS011;28237;47.954;21.730;2022-08-19T00:11:49;6.35;;;5.72;;
42282;SDS011;28237;47.954;21.730;2022-08-19T00:14:15;6.45;;;5.75;;
42282;SDS011;28237;47.954;21.730;2022-08-19T00:16:41;6.50;;;5.43;;
42282;SDS011;28237;47.954;21.730;2022-08-19T00:19:08;6.38;;;5.80;;
42282;SDS011;28237;47.954;21.730;2022-08-19T00:21:33;8.88;;;5.78;;
42282;SDS011;28237;47.954;21.730;2022-08-19T00:24:03;6.40;;;5.82;;
42282;SDS011;28237;47.954;21.730;2022-08-19T00:26:28;6.28;;;5.65;;
42282;SDS011;28237;47.954;21.730;2022-08-19T00:28:54;6.30;;;5.70;;
42282;SDS011;28237;47.954;21.730;2022-08-19T00:31:20;6.70;;;5.97;;
42282;SDS011;28237;47.954;21.730;2022-08-19T00:33:45;7.22;;;5.90;;
42282;SDS011;28237;47.954;21.730;2022-08-19T00:36:11;7.45;;;6.65;;
42282;SDS011;28237;47.954;21.730;2022-08-19T00:38:37;6.70;;;6.03;;
42282;SDS011;28237;47.954;21.730;2022-08-19T00:41:03;10.52;;;6.43;;
42282;SDS011;28237;47.954;21.730;2022-08-19T00:43:29;7.32;;;6.63;;
42282;SDS011;28237;47.954;21.730;2022-08-19T00:45:55;6.88;;;6.18;;
42282;SDS011;28237;47.954;21.730;2022-08-19T00:48:20;7.47;;;6.37;;
42282;SDS011;28237;47.954;21.730;2022-08-19T00:50:46;7.78;;;6.13;;
42282;SDS011;28237;47.954;21.730;2022-08-19T00:53:13;6.60;;;5.90;;
42282;SDS011;28237;47.954;21.730;2022-08-19T00:55:40;5.82;;;5.32;;
42282;SDS011;28237;47.954;21.730;2022-08-19T00:58:08;8.07;;;6.15;;
42282;SDS011;28237;47.954;21.730;2022-08-19T01:00:35;6.22;;;5.72;;
42282;SDS011;28237;47.954;21.730;2022-08-19T01:03:06;9.68;;;5.75;;
42282;SDS011;28237;47.954;21.730;2022-08-19T01:05:32;10.63;;;6.78;;
42282;SDS011;28237;47.954;21.730;2022-08-19T01:07:58;7.57;;;5.93;;
42282;SDS011;28237;47.954;21.730;2022-08-19T01:10:26;7.13;;;5.60;;
42282;SDS011;28237;47.954;21.730;2022-08-19T01:12:52;7.30;;;6.35;;
42282;SDS011;28237;47.954;21.730;2022-08-19T01:15:20;6.68;;;6.07;;
42282;SDS011;28237;47.954;21.730;2022-08-19T01:17:46;6.13;;;5.53;;
42282;SDS011;28237;47.954;21.730;2022-08-19T01:20:14;6.28;;;5.65;;
42282;SDS011;28237;47.954;21.730;2022-08-19T01:25:05;6.30;;;5.70;;
42282;SDS011;28237;47.954;21.730;2022-08-19T01:27:38;6.15;;;5.55;;
42282;SDS011;28237;47.954;21.730;2022-08-19T01:30:04;9.98;;;6.13;;
42282;SDS011;28237;47.954;21.730;2022-08-19T01:32:30;8.27;;;6.57;;
42282;SDS011;28237;47.954;21.730;2022-08-19T01:34:55;8.27;;;6.33;;
42282;SDS011;28237;47.954;21.730;2022-08-19T01:37:21;7.17;;;6.43;;
42282;SDS011;28237;47.954;21.730;2022-08-19T01:39:46;10.65;;;6.53;;
42282;SDS011;28237;47.954;21.730;2022-08-19T01:42:11;9.50;;;7.20;;
42282;SDS011;28237;47.954;21.730;2022-08-19T01:44:38;8.23;;;6.20;;
42282;SDS011;28237;47.954;21.730;2022-08-19T01:47:05;6.97;;;6.38;;
42282;SDS011;28237;47.954;21.730;2022-08-19T01:49:31;6.75;;;6.15;;
42282;SDS011;28237;47.954;21.730;2022-08-19T01:51:56;7.53;;;6.80;;
42282;SDS011;28237;47.954;21.730;2022-08-19T01:54:22;7.65;;;6.95;;
42282;SDS011;28237;47.954;21.730;2022-08-19T01:56:48;8.32;;;6.88;;
42282;SDS011;28237;47.954;21.730;2022-08-19T01:59:16;8.73;;;6.43;;
42282;SDS011;28237;47.954;21.730;2022-08-19T02:01:42;7.45;;;6.43;;
42282;SDS011;28237;47.954;21.730;2022-08-19T02:04:08;9.63;;;6.77;;
42282;SDS011;28237;47.954;21.730;2022-08-19T02:06:33;9.77;;;8.03;;
42282;SDS011;28237;47.954;21.730;2022-08-19T02:08:58;9.30;;;7.40;;
42282;SDS011;28237;47.954;21.730;2022-08-19T02:11:33;7.80;;;6.90;;
42282;SDS011;28237;47.954;21.730;2022-08-19T02:14:00;7.82;;;7.05;;
42282;SDS011;28237;47.954;21.730;2022-08-19T02:16:26;7.63;;;6.93;;
42282;SDS011;28237;47.954;21.730;2022-08-19T02:18:52;9.63;;;7.97;;
42282;SDS011;28237;47.954;21.730;2022-08-19T02:21:18;8.17;;;7.23;;
42282;SDS011;28237;47.954;21.730;2022-08-19T02:23:43;8.52;;;7.63;;
42282;SDS011;28237;47.954;21.730;2022-08-19T02:26:09;8.27;;;7.13;;
42282;SDS011;28237;47.954;21.730;2022-08-19T02:28:34;9.25;;;7.68;;
42282;SDS011;28237;47.954;21.730;2022-08-19T02:30:59;10.13;;;7.70;;
42282;SDS011;28237;47.954;21.730;2022-08-19T02:33:25;8.18;;;6.90;;
42282;SDS011;28237;47.954;21.730;2022-08-19T02:35:51;9.05;;;7.43;;
42282;SDS011;28237;47.954;21.730;2022-08-19T02:38:16;10.07;;;8.10;;
42282;SDS011;28237;47.954;21.730;2022-08-19T02:40:51;10.40;;;7.95;;
42282;SDS011;28237;47.954;21.730;2022-08-19T02:43:17;9.00;;;7.82;;
42282;SDS011;28237;47.954;21.730;2022-08-19T02:45:42;10.40;;;7.38;;
42282;SDS011;28237;47.954;21.730;2022-08-19T02:48:08;9.17;;;7.60;;
42282;SDS011;28237;47.954;21.730;2022-08-19T02:50:37;14.75;;;8.13;;
42282;SDS011;28237;47.954;21.730;2022-08-19T02:53:02;10.10;;;8.43;;
42282;SDS011;28237;47.954;21.730;2022-08-19T02:55:27;11.57;;;8.20;;
42282;SDS011;28237;47.954;21.730;2022-08-19T02:57:53;10.43;;;8.13;;
42282;SDS011;28237;47.954;21.730;2022-08-19T03:00:19;8.82;;;7.78;;
42282;SDS011;28237;47.954;21.730;2022-08-19T03:02:44;9.65;;;8.25;;
42282;SDS011;28237;47.954;21.730;2022-08-19T03:05:09;8.23;;;7.45;;
42282;SDS011;28237;47.954;21.730;2022-08-19T03:07:35;11.70;;;8.23;;
42282;SDS011;28237;47.954;21.730;2022-08-19T03:10:01;10.65;;;8.25;;
42282;SDS011;28237;47.954;21.730;2022-08-19T03:12:26;8.80;;;7.82;;
42282;SDS011;28237;47.954;21.730;2022-08-19T03:14:52;9.70;;;8.00;;
42282;SDS011;28237;47.954;21.730;2022-08-19T03:17:17;9.15;;;8.25;;
42282;SDS011;28237;47.954;21.730;2022-08-19T03:19:43;8.02;;;7.15;;
42282;SDS011;28237;47.954;21.730;2022-08-19T03:22:08;9.10;;;8.20;;
42282;SDS011;28237;47.954;21.730;2022-08-19T03:24:33;11.70;;;8.48;;
42282;SDS011;28237;47.954;21.730;2022-08-19T03:26:59;10.02;;;7.78;;
42282;SDS011;28237;47.954;21.730;2022-08-19T03:29:25;9.97;;;8.97;;
42282;SDS011;28237;47.954;21.730;2022-08-19T03:31:51;12.10;;;9.60;;
42282;SDS011;28237;47.954;21.730;2022-08-19T03:34:26;9.85;;;8.27;;
42282;SDS011;28237;47.954;21.730;2022-08-19T03:36:55;9.38;;;7.93;;
42282;SDS011;28237;47.954;21.730;2022-08-19T03:39:22;10.40;;;7.85;;
42282;SDS011;28237;47.954;21.730;2022-08-19T03:41:48;9.02;;;8.05;;
42282;SDS011;28237;47.954;21.730;2022-08-19T03:44:16;9.18;;;7.75;;
42282;SDS011;28237;47.954;21.730;2022-08-19T03:46:42;8.27;;;7.43;;
42282;SDS011;28237;47.954;21.730;2022-08-19T03:49:08;11.90;;;9.15;;
42282;SDS011;28237;47.954;21.730;2022-08-19T03:51:34;10.85;;;8.63;;
42282;SDS011;28237;47.954;21.730;2022-08-19T03:54:01;19.02;;;9.38;;
42282;SDS011;28237;47.954;21.730;2022-08-19T03:56:27;14.80;;;8.80;;
42282;SDS011;28237;47.954;21.730;2022-08-19T03:58:53;12.10;;;8.55;;
42282;SDS011;28237;47.954;21.730;2022-08-19T04:01:20;13.15;;;10.00;;
42282;SDS011;28237;47.954;21.730;2022-08-19T04:03:45;12.32;;;9.63;;
42282;SDS011;28237;47.954;21.730;2022-08-19T04:09:07;9.60;;;8.60;;
42282;SDS011;28237;47.954;21.730;2022-08-19T04:11:35;16.73;;;10.02;;
42282;SDS011;28237;47.954;21.730;2022-08-19T04:14:00;10.00;;;8.27;;
42282;SDS011;28237;47.954;21.730;2022-08-19T04:16:26;12.35;;;9.25;;
42282;SDS011;28237;47.954;21.730;2022-08-19T04:18:55;14.23;;;9.23;;
42282;SDS011;28237;47.954;21.730;2022-08-19T04:21:21;10.60;;;8.80;;
42282;SDS011;28237;47.954;21.730;2022-08-19T04:23:47;12.10;;;9.68;;
42282;SDS011;28237;47.954;21.730;2022-08-19T04:26:16;12.27;;;10.38;;
42282;SDS011;28237;47.954;21.730;2022-08-19T04:28:42;10.80;;;9.52;;
42282;SDS011;28237;47.954;21.730;2022-08-19T04:31:12;13.40;;;10.20;;
42282;SDS011;28237;47.954;21.730;2022-08-19T04:33:38;11.15;;;9.15;;
42282;SDS011;28237;47.954;21.730;2022-08-19T04:36:03;11.53;;;10.07;;
42282;SDS011;28237;47.954;21.730;2022-08-19T04:38:28;15.75;;;10.43;;
42282;SDS011;28237;47.954;21.730;2022-08-19T04:40:53;11.73;;;10.63;;
42282;SDS011;28237;47.954;21.730;2022-08-19T04:43:38;12.27;;;10.35;;
42282;SDS011;28237;47.954;21.730;2022-08-19T04:46:06;16.58;;;10.60;;
42282;SDS011;28237;47.954;21.730;2022-08-19T04:48:32;17.08;;;10.95;;
42282;SDS011;28237;47.954;21.730;2022-08-19T04:50:58;15.13;;;10.10;;
42282;SDS011;28237;47.954;21.730;2022-08-19T04:53:24;11.65;;;10.05;;
42282;SDS011;28237;47.954;21.730;2022-08-19T04:55:50;13.65;;;10.18;;
42282;SDS011;28237;47.954;21.730;2022-08-19T04:58:16;10.98;;;9.20;;
42282;SDS011;28237;47.954;21.730;2022-08-19T05:00:42;12.50;;;10.15;;
42282;SDS011;28237;47.954;21.730;2022-08-19T05:03:08;10.70;;;9.50;;
42282;SDS011;28237;47.954;21.730;2022-08-19T05:05:33;16.37;;;10.20;;
42282;SDS011;28237;47.954;21.730;2022-08-19T05:08:03;10.95;;;9.88;;
42282;SDS011;28237;47.954;21.730;2022-08-19T05:10:28;10.65;;;9.48;;
42282;SDS011;28237;47.954;21.730;2022-08-19T05:12:55;12.77;;;10.10;;
42282;SDS011;28237;47.954;21.730;2022-08-19T05:15:25;14.60;;;10.47;;
42282;SDS011;28237;47.954;21.730;2022-08-19T05:17:51;11.60;;;10.50;;
42282;SDS011;28237;47.954;21.730;2022-08-19T05:20:37;15.13;;;10.55;;
42282;SDS011;28237;47.954;21.730;2022-08-19T05:23:21;17.13;;;10.93;;
42282;SDS011;28237;47.954;21.730;2022-08-19T05:25:46;13.33;;;11.03;;
42282;SDS011;28237;47.954;21.730;2022-08-19T05:28:11;12.33;;;11.00;;
42282;SDS011;28237;47.954;21.730;2022-08-19T05:30:37;11.23;;;9.73;;
42282;SDS011;28237;47.954;21.730;2022-08-19T05:33:02;13.10;;;10.50;;
42282;SDS011;28237;47.954;21.730;2022-08-19T05:35:27;14.98;;;9.95;;
42282;SDS011;28237;47.954;21.730;2022-08-19T05:37:53;13.50;;;10.30;;
42282;SDS011;28237;47.954;21.730;2022-08-19T05:40:19;14.60;;;9.85;;
42282;SDS011;28237;47.954;21.730;2022-08-19T05:42:44;11.13;;;10.03;;
42282;SDS011;28237;47.954;21.730;2022-08-19T05:45:10;13.18;;;11.05;;
42282;SDS011;28237;47.954;21.730;2022-08-19T05:47:36;10.95;;;9.32;;
42282;SDS011;28237;47.954;21.730;2022-08-19T05:50:02;12.43;;;10.43;;
42282;SDS011;28237;47.954;21.730;2022-08-19T05:52:27;12.48;;;9.85;;
42282;SDS011;28237;47.954;21.730;2022-08-19T05:54:53;12.30;;;10.48;;
42282;SDS011;28237;47.954;21.730;2022-08-19T05:57:20;13.68;;;9.35;;
42282;SDS011;28237;47.954;21.730;2022-08-19T05:59:45;12.13;;;9.10;;
42282;SDS011;28237;47.954;21.730;2022-08-19T06:02:13;15.32;;;9.70;;
42282;SDS011;28237;47.954;21.730;2022-08-19T06:04:39;10.65;;;9.52;;
42282;SDS011;28237;47.954;21.730;2022-08-19T06:07:07;12.27;;;9.88;;
42282;SDS011;28237;47.954;21.730;2022-08-19T06:09:32;13.73;;;9.50;;
42282;SDS011;28237;47.954;21.730;2022-08-19T06:11:58;11.43;;;9.17;;
42282;SDS011;28237;47.954;21.730;2022-08-19T06:14:26;14.05;;;9.15;;
42282;SDS011;28237;47.954;21.730;2022-08-19T06:16:51;13.00;;;8.85;;
42282;SDS011;28237;47.954;21.730;2022-08-19T06:19:20;13.18;;;8.73;;
42282;SDS011;28237;47.954;21.730;2022-08-19T06:21:46;10.15;;;8.80;;
42282;SDS011;28237;47.954;21.730;2022-08-19T06:24:13;13.50;;;9.13;;
42282;SDS011;28237;47.954;21.730;2022-08-19T06:26:39;14.27;;;8.48;;
42282;SDS011;28237;47.954;21.730;2022-08-19T06:29:07;18.05;;;8.68;;
42282;SDS011;28237;47.954;21.730;2022-08-19T06:31:33;11.85;;;8.75;;
42282;SDS011;28237;47.954;21.730;2022-08-19T06:33:59;12.48;;;8.55;;
42282;SDS011;28237;47.954;21.730;2022-08-19T06:36:28;10.82;;;7.80;;
42282;SDS011;28237;47.954;21.730;2022-08-19T06:39:02;12.18;;;8.68;;
42282;SDS011;28237;47.954;21.730;2022-08-19T06:41:28;10.52;;;8.32;;
42282;SDS011;28237;47.954;21.730;2022-08-19T06:43:54;13.85;;;9.15;;
42282;SDS011;28237;47.954;21.730;2022-08-19T06:46:20;12.48;;;8.32;;
42282;SDS011;28237;47.954;21.730;2022-08-19T06:48:46;10.18;;;8.40;;
42282;SDS011;28237;47.954;21.730;2022-08-19T06:51:12;10.35;;;8.10;;
42282;SDS011;28237;47.954;21.730;2022-08-19T06:53:40;9.90;;;7.95;;
42282;SDS011;28237;47.954;21.730;2022-08-19T06:56:05;10.90;;;7.40;;
42282;SDS011;28237;47.954;21.730;2022-08-19T06:58:31;10.13;;;7.78;;
42282;SDS011;28237;47.954;21.730;2022-08-19T07:01:00;9.90;;;7.97;;
42282;SDS011;28237;47.954;21.730;2022-08-19T07:03:27;9.90;;;7.55;;
42282;SDS011;28237;47.954;21.730;2022-08-19T07:05:53;7.75;;;6.95;;
42282;SDS011;28237;47.954;21.730;2022-08-19T07:08:18;7.80;;;6.97;;
42282;SDS011;28237;47.954;21.730;2022-08-19T07:10:44;10.03;;;7.63;;
42282;SDS011;28237;47.954;21.730;2022-08-19T07:13:09;8.35;;;7.05;;
42282;SDS011;28237;47.954;21.730;2022-08-19T07:15:36;9.30;;;6.78;;
42282;SDS011;28237;47.954;21.730;2022-08-19T07:18:02;8.13;;;7.22;;
42282;SDS011;28237;47.954;21.730;2022-08-19T07:20:27;13.40;;;6.95;;
42282;SDS011;28237;47.954;21.730;2022-08-19T07:22:53;8.50;;;7.50;;
42282;SDS011;28237;47.954;21.730;2022-08-19T07:25:18;11.87;;;9.23;;
42282;SDS011;28237;47.954;21.730;2022-08-19T07:27:45;10.57;;;7.63;;
42282;SDS011;28237;47.954;21.730;2022-08-19T07:30:13;11.20;;;7.70;;
42282;SDS011;28237;47.954;21.730;2022-08-19T07:32:39;8.95;;;7.95;;
42282;SDS011;28237;47.954;21.730;2022-08-19T07:35:04;11.43;;;7.57;;
42282;SDS011;28237;47.954;21.730;2022-08-19T07:37:30;11.77;;;7.20;;
42282;SDS011;28237;47.954;21.730;2022-08-19T07:39:56;7.60;;;6.90;;
42282;SDS011;28237;47.954;21.730;2022-08-19T07:42:21;13.03;;;5.93;;
42282;SDS011;28237;47.954;21.730;2022-08-19T07:44:46;7.67;;;6.13;;
42282;SDS011;28237;47.954;21.730;2022-08-19T07:47:11;7.90;;;6.00;;
42282;SDS011;28237;47.954;21.730;2022-08-19T07:49:38;10.68;;;8.98;;
42282;SDS011;28237;47.954;21.730;2022-08-19T07:52:07;7.95;;;6.13;;
42282;SDS011;28237;47.954;21.730;2022-08-19T07:54:34;8.70;;;6.47;;
42282;SDS011;28237;47.954;21.730;2022-08-19T07:57:00;9.63;;;8.15;;
42282;SDS011;28237;47.954;21.730;2022-08-19T07:59:25;9.90;;;7.55;;
42282;SDS011;28237;47.954;21.730;2022-08-19T08:01:51;9.25;;;6.47;;
42282;SDS011;28237;47.954;21.730;2022-08-19T08:04:17;11.73;;;6.07;;
42282;SDS011;28237;47.954;21.730;2022-08-19T08:09:53;6.55;;;5.75;;
42282;SDS011;28237;47.954;21.730;2022-08-19T08:12:24;9.40;;;5.87;;
42282;SDS011;28237;47.954;21.730;2022-08-19T08:14:54;6.53;;;5.50;;
42282;SDS011;28237;47.954;21.730;2022-08-19T08:17:21;5.97;;;5.35;;
42282;SDS011;28237;47.954;21.730;2022-08-19T08:19:47;8.10;;;6.70;;
42282;SDS011;28237;47.954;21.730;2022-08-19T08:22:15;5.82;;;5.18;;
42282;SDS011;28237;47.954;21.730;2022-08-19T08:25:10;7.35;;;5.78;;
42282;SDS011;28237;47.954;21.730;2022-08-19T08:27:36;9.32;;;5.45;;
42282;SDS011;28237;47.954;21.730;2022-08-19T08:30:04;6.85;;;6.15;;
42282;SDS011;28237;47.954;21.730;2022-08-19T08:32:31;9.30;;;5.70;;
42282;SDS011;28237;47.954;21.730;2022-08-19T08:34:56;8.60;;;5.60;;
42282;SDS011;28237;47.954;21.730;2022-08-19T08:37:21;6.33;;;5.60;;
42282;SDS011;28237;47.954;21.730;2022-08-19T08:39:47;6.30;;;5.20;;
42282;SDS011;28237;47.954;21.730;2022-08-19T08:42:30;10.67;;;5.50;;
42282;SDS011;28237;47.954;21.730;2022-08-19T08:45:00;6.45;;;5.20;;
42282;SDS011;28237;47.954;21.730;2022-08-19T08:47:35;9.63;;;5.25;;
42282;SDS011;28237;47.954;21.730;2022-08-19T08:52:30;6.03;;;5.43;;
42282;SDS011;28237;47.954;21.730;2022-08-19T08:55:00;7.85;;;5.45;;
42282;SDS011;28237;47.954;21.730;2022-08-19T08:59:56;5.72;;;4.82;;
42282;SDS011;28237;47.954;21.730;2022-08-19T09:02:22;6.70;;;5.13;;
42282;SDS011;28237;47.954;21.730;2022-08-19T09:04:47;6.40;;;5.33;;
42282;SDS011;28237;47.954;21.730;2022-08-19T09:10:04;8.20;;;5.00;;
42282;SDS011;28237;47.954;21.730;2022-08-19T09:14:58;6.03;;;4.87;;
42282;SDS011;28237;47.954;21.730;2022-08-19T09:17:26;6.88;;;5.00;;
42282;SDS011;28237;47.954;21.730;2022-08-19T09:22:21;7.10;;;4.15;;
42282;SDS011;28237;47.954;21.730;2022-08-19T09:24:47;8.73;;;4.25;;
42282;SDS011;28237;47.954;21.730;2022-08-19T09:27:13;4.70;;;4.30;;
42282;SDS011;28237;47.954;21.730;2022-08-19T09:29:38;6.15;;;5.07;;
42282;SDS011;28237;47.954;21.730;2022-08-19T09:32:04;5.13;;;4.63;;
42282;SDS011;28237;47.954;21.730;2022-08-19T09:34:29;4.50;;;4.10;;
42282;SDS011;28237;47.954;21.730;2022-08-19T09:36:54;4.07;;;3.53;;
42282;SDS011;28237;47.954;21.730;2022-08-19T09:39:23;4.90;;;4.47;;
42282;SDS011;28237;47.954;21.730;2022-08-19T09:41:48;4.72;;;4.32;;
42282;SDS011;28237;47.954;21.730;2022-08-19T09:44:14;4.45;;;3.92;;
42282;SDS011;28237;47.954;21.730;2022-08-19T09:46:40;6.45;;;4.65;;
42282;SDS011;28237;47.954;21.730;2022-08-19T09:49:05;7.27;;;3.83;;
42282;SDS011;28237;47.954;21.730;2022-08-19T09:51:31;4.45;;;4.13;;
42282;SDS011;28237;47.954;21.730;2022-08-19T09:54:01;5.18;;;4.35;;
42282;SDS011;28237;47.954;21.730;2022-08-19T09:56:27;4.50;;;3.28;;
42282;SDS011;28237;47.954;21.730;2022-08-19T09:58:53;4.28;;;3.72;;
42282;SDS011;28237;47.954;21.730;2022-08-19T10:01:22;4.37;;;3.43;;
42282;SDS011;28237;47.954;21.730;2022-08-19T10:03:52;7.00;;;3.85;;
42282;SDS011;28237;47.954;21.730;2022-08-19T10:06:18;3.63;;;3.17;;
42282;SDS011;28237;47.954;21.730;2022-08-19T10:08:44;5.38;;;3.78;;
42282;SDS011;28237;47.954;21.730;2022-08-19T10:11:09;4.45;;;4.05;;
42282;SDS011;28237;47.954;21.730;2022-08-19T10:13:35;4.30;;;3.87;;
42282;SDS011;28237;47.954;21.730;2022-08-19T10:16:03;5.32;;;2.95;;
42282;SDS011;28237;47.954;21.730;2022-08-19T10:18:28;4.03;;;3.65;;
42282;SDS011;28237;47.954;21.730;2022-08-19T10:21:01;5.50;;;3.93;;
42282;SDS011;28237;47.954;21.730;2022-08-19T10:23:27;5.57;;;3.63;;
42282;SDS011;28237;47.954;21.730;2022-08-19T10:25:58;3.40;;;2.80;;
42282;SDS011;28237;47.954;21.730;2022-08-19T10:28:24;4.15;;;3.55;;
42282;SDS011;28237;47.954;21.730;2022-08-19T10:30:49;3.60;;;3.30;;
42282;SDS011;28237;47.954;21.730;2022-08-19T10:33:14;8.43;;;3.07;;
42282;SDS011;28237;47.954;21.730;2022-08-19T10:35:40;4.10;;;3.20;;
42282;SDS011;28237;47.954;21.730;2022-08-19T10:38:05;5.67;;;2.77;;
42282;SDS011;28237;47.954;21.730;2022-08-19T10:40:30;4.13;;;3.20;;
42282;SDS011;28237;47.954;21.730;2022-08-19T10:42:55;2.90;;;2.60;;
42282;SDS011;28237;47.954;21.730;2022-08-19T10:45:21;5.70;;;3.40;;
42282;SDS011;28237;47.954;21.730;2022-08-19T10:47:51;2.85;;;2.65;;
42282;SDS011;28237;47.954;21.730;2022-08-19T10:50:17;3.88;;;3.38;;
42282;SDS011;28237;47.954;21.730;2022-08-19T10:53:03;2.55;;;2.35;;
42282;SDS011;28237;47.954;21.730;2022-08-19T10:55:29;3.67;;;3.30;;
42282;SDS011;28237;47.954;21.730;2022-08-19T10:58:14;3.10;;;2.80;;
42282;SDS011;28237;47.954;21.730;2022-08-19T11:00:40;4.03;;;2.78;;
42282;SDS011;28237;47.954;21.730;2022-08-19T11:03:09;2.67;;;2.47;;
42282;SDS011;28237;47.954;21.730;2022-08-19T11:05:34;2.88;;;2.67;;
42282;SDS011;28237;47.954;21.730;2022-08-19T11:08:00;2.78;;;2.50;;
42282;SDS011;28237;47.954;21.730;2022-08-19T11:10:25;3.73;;;2.43;;
42282;SDS011;28237;47.954;21.730;2022-08-19T11:12:50;3.77;;;2.43;;
42282;SDS011;28237;47.954;21.730;2022-08-19T11:15:20;3.38;;;2.50;;
42282;SDS011;28237;47.954;21.730;2022-08-19T11:17:45;3.83;;;2.50;;
42282;SDS011;28237;47.954;21.730;2022-08-19T11:20:11;3.97;;;2.53;;
42282;SDS011;28237;47.954;21.730;2022-08-19T11:22:37;2.50;;;2.38;;
42282;SDS011;28237;47.954;21.730;2022-08-19T11:25:02;5.78;;;2.45;;
42282;SDS011;28237;47.954;21.730;2022-08-19T11:27:28;2.00;;;1.77;;
42282;SDS011;28237;47.954;21.730;2022-08-19T11:29:54;3.77;;;3.10;;
42282;SDS011;28237;47.954;21.730;2022-08-19T11:32:19;2.93;;;2.63;;
42282;SDS011;28237;47.954;21.730;2022-08-19T11:34:44;3.73;;;2.70;;
42282;SDS011;28237;47.954;21.730;2022-08-19T11:37:09;4.63;;;2.70;;
42282;SDS011;28237;47.954;21.730;2022-08-19T11:39:36;5.23;;;3.10;;
42282;SDS011;28237;47.954;21.730;2022-08-19T11:42:02;5.68;;;3.08;;
42282;SDS011;28237;47.954;21.730;2022-08-19T11:44:48;3.53;;;3.00;;
42282;SDS011;28237;47.954;21.730;2022-08-19T11:47:14;4.30;;;2.80;;
42282;SDS011;28237;47.954;21.730;2022-08-19T11:49:39;3.43;;;3.10;;
42282;SDS011;28237;47.954;21.730;2022-08-19T11:52:04;3.77;;;3.07;;
42282;SDS011;28237;47.954;21.730;2022-08-19T11:54:30;4.03;;;2.90;;
42282;SDS011;28237;47.954;21.730;2022-08-19T11:56:55;3.63;;;3.20;;
42282;SDS011;28237;47.954;21.730;2022-08-19T11:59:21;3.50;;;2.80;;
42282;SDS011;28237;47.954;21.730;2022-08-19T12:01:46;3.13;;;2.93;;
42282;SDS011;28237;47.954;21.730;2022-08-19T12:04:11;3.47;;;3.03;;
42282;SDS011;28237;47.954;21.730;2022-08-19T12:06:37;5.00;;;3.10;;
42282;SDS011;28237;47.954;21.730;2022-08-19T12:09:04;2.90;;;2.70;;
42282;SDS011;28237;47.954;21.730;2022-08-19T12:11:30;3.60;;;2.47;;
42282;SDS011;28237;47.954;21.730;2022-08-19T12:13:55;3.33;;;2.92;;
42282;SDS011;28237;47.954;21.730;2022-08-19T12:16:22;5.20;;;2.43;;
42282;SDS011;28237;47.954;21.730;2022-08-19T12:18:48;3.83;;;2.78;;
42282;SDS011;28237;47.954;21.730;2022-08-19T12:21:16;5.72;;;3.17;;
42282;SDS011;28237;47.954;21.730;2022-08-19T12:23:42;3.20;;;2.90;;
42282;SDS011;28237;47.954;21.730;2022-08-19T12:26:08;4.90;;;2.40;;
42282;SDS011;28237;47.954;21.730;2022-08-19T12:28:34;3.90;;;2.67;;
42282;SDS011;28237;47.954;21.730;2022-08-19T12:30:59;3.30;;;3.10;;
42282;SDS011;28237;47.954;21.730;2022-08-19T12:33:25;4.60;;;3.00;;
42282;SDS011;28237;47.954;21.730;2022-08-19T12:35:52;3.05;;;2.65;;
42282;SDS011;28237;47.954;21.730;2022-08-19T12:38:18;6.47;;;3.25;;
42282;SDS011;28237;47.954;21.730;2022-08-19T12:40:46;3.13;;;2.90;;
42282;SDS011;28237;47.954;21.730;2022-08-19T12:43:12;2.65;;;2.40;;
42282;SDS011;28237;47.954;21.730;2022-08-19T12:45:40;2.45;;;2.25;;
42282;SDS011;28237;47.954;21.730;2022-08-19T12:48:06;2.40;;;2.20;;
42282;SDS011;28237;47.954;21.730;2022-08-19T12:50:31;5.43;;;2.50;;
42282;SDS011;28237;47.954;21.730;2022-08-19T12:52:57;3.73;;;2.50;;
42282;SDS011;28237;47.954;21.730;2022-08-19T12:55:23;4.65;;;2.88;;
42282;SDS011;28237;47.954;21.730;2022-08-19T12:57:49;3.78;;;2.70;;
42282;SDS011;28237;47.954;21.730;2022-08-19T13:00:16;4.05;;;3.00;;
42282;SDS011;28237;47.954;21.730;2022-08-19T13:02:43;2.78;;;2.58;;
42282;SDS011;28237;47.954;21.730;2022-08-19T13:05:10;2.78;;;2.58;;
42282;SDS011;28237;47.954;21.730;2022-08-19T13:07:37;6.18;;;2.30;;
42282;SDS011;28237;47.954;21.730;2022-08-19T13:10:03;2.83;;;2.63;;
42282;SDS011;28237;47.954;21.730;2022-08-19T13:12:29;3.25;;;2.53;;
42282;SDS011;28237;47.954;21.730;2022-08-19T13:14:55;3.80;;;2.50;;
42282;SDS011;28237;47.954;21.730;2022-08-19T13:17:20;2.78;;;2.47;;
42282;SDS011;28237;47.954;21.730;2022-08-19T13:19:45;2.60;;;2.40;;
42282;SDS011;28237;47.954;21.730;2022-08-19T13:22:11;2.20;;;2.00;;
42282;SDS011;28237;47.954;21.730;2022-08-19T13:24:37;2.53;;;2.28;;
42282;SDS011;28237;47.954;21.730;2022-08-19T13:27:02;3.40;;;2.60;;
42282;SDS011;28237;47.954;21.730;2022-08-19T13:29:28;5.43;;;2.78;;
42282;SDS011;28237;47.954;21.730;2022-08-19T13:32:12;2.47;;;2.28;;
42282;SDS011;28237;47.954;21.730;2022-08-19T13:34:56;3.00;;;2.40;;
42282;SDS011;28237;47.954;21.730;2022-08-19T13:37:21;2.63;;;2.27;;
42282;SDS011;28237;47.954;21.730;2022-08-19T13:40:06;3.17;;;2.95;;
42282;SDS011;28237;47.954;21.730;2022-08-19T13:42:32;3.60;;;2.28;;
42282;SDS011;28237;47.954;21.730;2022-08-19T13:44:57;2.43;;;2.23;;
42282;SDS011;28237;47.954;21.730;2022-08-19T13:47:23;2.22;;;2.03;;
42282;SDS011;28237;47.954;21.730;2022-08-19T13:49:49;2.38;;;2.10;;
42282;SDS011;28237;47.954;21.730;2022-08-19T13:52:15;3.05;;;2.42;;
42282;SDS011;28237;47.954;21.730;2022-08-19T13:54:40;4.47;;;2.30;;
42282;SDS011;28237;47.954;21.730;2022-08-19T13:57:05;3.57;;;2.30;;
42282;SDS011;28237;47.954;21.730;2022-08-19T13:59:31;2.23;;;2.13;;
42282;SDS011;28237;47.954;21.730;2022-08-19T14:01:57;3.40;;;2.53;;
42282;SDS011;28237;47.954;21.730;2022-08-19T14:04:23;3.55;;;1.90;;
42282;SDS011;28237;47.954;21.730;2022-08-19T14:06:48;3.77;;;3.03;;
42282;SDS011;28237;47.954;21.730;2022-08-19T14:09:13;3.53;;;3.20;;
42282;SDS011;28237;47.954;21.730;2022-08-19T14:11:39;4.70;;;2.80;;
42282;SDS011;28237;47.954;21.730;2022-08-19T14:14:04;2.22;;;2.03;;
42282;SDS011;28237;47.954;21.730;2022-08-19T14:16:29;2.77;;;2.47;;
42282;SDS011;28237;47.954;21.730;2022-08-19T14:18:55;2.85;;;2.55;;
42282;SDS011;28237;47.954;21.730;2022-08-19T14:21:21;2.08;;;1.90;;
42282;SDS011;28237;47.954;21.730;2022-08-19T14:23:47;2.40;;;2.15;;
42282;SDS011;28237;47.954;21.730;2022-08-19T14:26:15;2.20;;;2.10;;
42282;SDS011;28237;47.954;21.730;2022-08-19T14:28:41;2.15;;;1.95;;
42282;SDS011;28237;47.954;21.730;2022-08-19T14:31:07;2.88;;;1.95;;
42282;SDS011;28237;47.954;21.730;2022-08-19T14:33:33;8.13;;;2.28;;
42282;SDS011;28237;47.954;21.730;2022-08-19T14:35:58;2.70;;;1.90;;
42282;SDS011;28237;47.954;21.730;2022-08-19T14:38:25;4.20;;;2.50;;
42282;SDS011;28237;47.954;21.730;2022-08-19T14:40:50;3.47;;;2.00;;
42282;SDS011;28237;47.954;21.730;2022-08-19T14:43:17;4.63;;;2.50;;
42282;SDS011;28237;47.954;21.730;2022-08-19T14:45:42;2.53;;;2.15;;
42282;SDS011;28237;47.954;21.730;2022-08-19T14:48:08;3.40;;;2.77;;
42282;SDS011;28237;47.954;21.730;2022-08-19T14:50:33;2.28;;;2.08;;